Cenk Car — 9HVM6 — position and weather

sailwx.info

Track history (hours):
 
Tides and Currents Weather Stations Pressure Air Temp Water Temp Dewpoint Dewpoint Depression Visibility Wind Speed Wind Dir Waves Ship Positions

Cenk Car

Last reported at 2017-Dec-15 05:59 UTC. Time now 2017-Dec-17 06:34 UTC.
Position N 46°19' E 030°42'.

Length 221 m; draft 4.8 m.

Type: Cargo ship. MMSI: 248901000.

Date/timePositionNaut miles runAvg speedWind from/ knotsBaromVisibWave heightAir tempDewpointWater temp
2017-Dec-15 05:59N 46°19' E 030°42'141 9.4
2017-Dec-14 15:00N 44°06' E 029°38'5 9.5
2017-Dec-14 14:30N 44°01' E 029°35'5 9.4
2017-Dec-14 14:00N 43°57' E 029°33'5 9.5
2017-Dec-14 13:30N 43°53' E 029°30'5 9.6
2017-Dec-14 13:00N 43°48' E 029°27'5 9.6
2017-Dec-14 12:30N 43°44' E 029°24'166 8.8
2017-Dec-13 17:31N 40°59' E 028°60'0 7.4
2017-Dec-13 17:29N 40°58' E 029°00'3 6.9
2017-Dec-13 17:00N 40°55' E 029°01'3 6.8
2017-Dec-13 16:30N 40°52' E 029°03'4 9.0
2017-Dec-13 16:00N 40°50' E 029°08'3 6.2
2017-Dec-13 15:30N 40°51' E 029°11'0 0.0
2017-Dec-13 14:56N 40°51' E 029°12'0 0.0
2017-Dec-13 14:25N 40°51' E 029°11'0 0.0
2017-Dec-13 13:49N 40°51' E 029°11'0 0.0
2017-Dec-13 13:25N 40°51' E 029°12'0 0.0
2017-Dec-13 12:55N 40°51' E 029°11'0 0.0
2017-Dec-13 12:25N 40°51' E 029°11'0 0.0
2017-Dec-13 11:55N 40°51' E 029°12'0 0.0
2017-Dec-13 11:25N 40°51' E 029°12'0 0.0
2017-Dec-13 10:49N 40°51' E 029°11'0 0.0
2017-Dec-13 10:25N 40°51' E 029°11'17 0.6
2017-Dec-12 05:07N 40°46' E 029°33'1 5.4
2017-Dec-12 04:54N 40°45' E 029°32'3 5.8
2017-Dec-12 04:22N 40°45' E 029°28'1 1.6
2017-Dec-12 03:59N 40°45' E 029°27'0 0.0
2017-Dec-11 05:46N 40°45' E 029°27'0 0.0
2017-Dec-10 23:34N 40°45' E 029°27'0 0.0
2017-Dec-10 10:39N 40°45' E 029°27'0 0.0
2017-Dec-10 10:09N 40°45' E 029°27'0 0.0
2017-Dec-10 02:39N 40°45' E 029°27'0 0.0
2017-Dec-09 12:14N 40°45' E 029°27'0 0.0
2017-Dec-09 10:20N 40°45' E 029°27'  
Track history (hours):
 
Tides and Currents Weather Stations Pressure Air Temp Water Temp Dewpoint Dewpoint Depression Visibility Wind Speed Wind Dir Waves Ship Positions

Cenk Car

Last reported at 2017-Dec-15 05:59 UTC. Time now 2017-Dec-17 06:34 UTC.
Position N 46°19' E 030°42'.

Length 221 m; draft 4.8 m.

Type: Cargo ship. MMSI: 248901000.

Date/timePositionNaut miles runAvg speedWind from/ knotsBaromVisibWave heightAir tempDewpointWater temp
2017-Dec-15 05:59N 46°19' E 030°42'141 9.4
2017-Dec-14 15:00N 44°06' E 029°38'5 9.5
2017-Dec-14 14:30N 44°01' E 029°35'5 9.4
2017-Dec-14 14:00N 43°57' E 029°33'5 9.5
2017-Dec-14 13:30N 43°53' E 029°30'5 9.6
2017-Dec-14 13:00N 43°48' E 029°27'5 9.6
2017-Dec-14 12:30N 43°44' E 029°24'166 8.8
2017-Dec-13 17:31N 40°59' E 028°60'0 7.4
2017-Dec-13 17:29N 40°58' E 029°00'3 6.9
2017-Dec-13 17:00N 40°55' E 029°01'3 6.8
2017-Dec-13 16:30N 40°52' E 029°03'4 9.0
2017-Dec-13 16:00N 40°50' E 029°08'3 6.2
2017-Dec-13 15:30N 40°51' E 029°11'0 0.0
2017-Dec-13 14:56N 40°51' E 029°12'0 0.0
2017-Dec-13 14:25N 40°51' E 029°11'0 0.0
2017-Dec-13 13:49N 40°51' E 029°11'0 0.0
2017-Dec-13 13:25N 40°51' E 029°12'0 0.0
2017-Dec-13 12:55N 40°51' E 029°11'0 0.0
2017-Dec-13 12:25N 40°51' E 029°11'0 0.0
2017-Dec-13 11:55N 40°51' E 029°12'0 0.0
2017-Dec-13 11:25N 40°51' E 029°12'0 0.0
2017-Dec-13 10:49N 40°51' E 029°11'0 0.0
2017-Dec-13 10:25N 40°51' E 029°11'17 0.6
2017-Dec-12 05:07N 40°46' E 029°33'1 5.4
2017-Dec-12 04:54N 40°45' E 029°32'3 5.8
2017-Dec-12 04:22N 40°45' E 029°28'1 1.6
2017-Dec-12 03:59N 40°45' E 029°27'0 0.0
2017-Dec-11 05:46N 40°45' E 029°27'0 0.0
2017-Dec-10 23:34N 40°45' E 029°27'0 0.0
2017-Dec-10 10:39N 40°45' E 029°27'0 0.0
2017-Dec-10 10:09N 40°45' E 029°27'0 0.0
2017-Dec-10 02:39N 40°45' E 029°27'0 0.0
2017-Dec-09 12:14N 40°45' E 029°27'0 0.0
2017-Dec-09 10:20N 40°45' E 029°27'  

Dump ship's entire track history